Time;durP1;ratioP1;P1;durP2;ratioP2;P2;SDS_P1;SDS_P2;PMS_P1;PMS_P2;Temp;Humidity;BMP_temperature;BMP_pressure;BME280_temperature;BME280_humidity;BME280_pressure;Samples;Min_cycle;Max_cycle;Signal;HPM_P1;HPM_P2
2021/12/01 00:02:24;;;;;;;;;;;;;;;-2.56;78.74;96580.38;6183329;23;20443;-68
2021/12/01 00:04:49;;;;;;;;;;;;;;;-2.57;79.05;96578.72;6183415;23;20403;-69
2021/12/01 00:07:15;;;;;;;;;;;;;;;-2.58;79.48;96584.84;6183606;23;19924;-70
2021/12/01 00:09:41;;;;;;;;;;;;;;;-2.58;79.38;96589.19;6183344;23;19942;-72
2021/12/01 00:12:06;;;;;;;;;;;;;;;-2.58;79.45;96581.44;6183818;23;19943;-69
2021/12/01 00:14:32;;;;;;;;;;;;;;;-2.57;79.84;96581.31;6183040;23;19973;-73
2021/12/01 00:16:58;;;;;;;;;;;;;;;-2.53;79.55;96590.53;6183114;23;19975;-69
2021/12/01 00:19:23;;;;;;;;;;;;;;;-2.54;79.27;96593.19;6183945;23;20011;-70
2021/12/01 00:21:49;;;;;;;;;;;;;;;-2.57;79.18;96594.25;6183482;23;19920;-69
2021/12/01 00:24:14;;;;;;;;;;;;;;;-2.47;79.27;96584.88;6183958;23;20003;-68
2021/12/01 00:26:40;;;;;;;;;;;;;;;-2.49;79.13;96586.75;6183607;23;19971;-69
2021/12/01 00:29:06;;;;;;;;;;;;;;;-2.55;79.27;96592.38;6183687;23;19974;-68
2021/12/01 00:31:32;;;;;;;;;;;;;;;-2.58;79.14;96590.00;6184055;23;19924;-70
2021/12/01 00:33:57;;;;;;;;;;;;;;;-2.51;79.39;96580.88;6183500;23;20301;-68
2021/12/01 00:36:23;;;;;;;;;;;;;;;-2.47;79.16;96592.66;6183715;23;19920;-69
2021/12/01 00:38:49;;;;;;;;;;;;;;;-2.54;79.08;96593.19;6182121;23;19927;-69
2021/12/01 00:41:15;;;;;;;;;;;;;;;-2.54;79.27;96588.03;6184549;23;19951;-70
2021/12/01 00:43:40;;;;;;;;;;;;;;;-2.50;79.07;96594.63;6184044;23;19940;-70
2021/12/01 00:46:18;;;;;;;;;;;;;;;-2.57;79.17;96589.06;6185662;23;19996;-70
2021/12/01 00:48:44;;;;;;;;;;;;;;;-2.50;79.23;96595.44;6185707;23;19940;-70
2021/12/01 00:51:10;;;;;;;;;;;;;;;-2.44;78.94;96579.47;6185533;23;19932;-69
2021/12/01 00:53:36;;;;;;;;;;;;;;;-2.42;79.16;96586.31;6185489;23;20365;-70
2021/12/01 00:56:01;;;;;;;;;;;;;;;-2.49;78.92;96604.06;6185602;23;19920;-69
2021/12/01 00:58:27;;;;;;;;;;;;;;;-2.45;79.00;96595.94;6185667;23;19924;-68
2021/12/01 01:00:54;;;;;;;;;;;;;;;-2.41;79.11;96598.31;6185455;23;19920;-68
2021/12/01 01:03:20;;;;;;;;;;;;;;;-2.46;78.98;96596.06;6185660;23;19924;-68
2021/12/01 01:05:45;;;;;;;;;;;;;;;-2.39;79.16;96599.00;6185269;23;19921;-68
2021/12/01 01:08:11;;;;;;;;;;;;;;;-2.38;79.18;96598.06;6185908;23;19924;-68
2021/12/01 01:18:34;;;;;;;;;;;;;;;-2.48;79.43;96593.59;6185705;23;20054;-69
2021/12/01 01:21:01;;;;;;;;;;;;;;;-2.49;79.29;96602.28;6185260;23;19952;-69
2021/12/01 01:23:29;;;;;;;;;;;;;;;-2.54;79.45;96596.63;6185554;23;19983;-69
2021/12/01 01:25:56;;;;;;;;;;;;;;;-2.51;79.54;96609.31;6185107;23;19951;-69
2021/12/01 01:28:21;;;;;;;;;;;;;;;-2.51;79.29;96608.50;6185221;23;19963;-69
2021/12/01 01:30:47;;;;;;;;;;;;;;;-2.48;79.44;96603.09;6184925;23;19925;-69
2021/12/01 01:33:13;;;;;;;;;;;;;;;-2.45;79.45;96603.69;6184022;23;19928;-69
2021/12/01 01:35:38;;;;;;;;;;;;;;;-2.48;79.33;96606.53;6182960;23;19920;-70
2021/12/01 01:38:04;;;;;;;;;;;;;;;-2.50;79.64;96605.81;6185181;23;19927;-69
2021/12/01 01:40:30;;;;;;;;;;;;;;;-2.44;79.45;96620.06;6185137;23;19947;-68
2021/12/01 01:42:55;;;;;;;;;;;;;;;-2.50;79.33;96608.38;6184688;23;20002;-66
2021/12/01 01:45:21;;;;;;;;;;;;;;;-2.44;79.45;96613.09;6185359;23;19958;-68
2021/12/01 01:47:58;;;;;;;;;;;;;;;-2.44;79.19;96614.88;6185252;23;20003;-69
2021/12/01 01:50:44;;;;;;;;;;;;;;;-2.42;79.08;96617.34;6185043;23;19921;-69
2021/12/01 01:53:16;;;;;;;;;;;;;;;-2.40;78.76;96610.31;6184893;23;19920;-69
2021/12/01 01:55:42;;;;;;;;;;;;;;;-2.44;78.85;96620.88;6184986;23;19920;-68
2021/12/01 01:58:08;;;;;;;;;;;;;;;-2.41;78.87;96611.25;6185144;23;19989;-68
2021/12/01 02:00:40;;;;;;;;;;;;;;;-2.39;78.72;96622.28;6183983;23;20394;-68
2021/12/01 02:03:06;;;;;;;;;;;;;;;-2.37;78.81;96625.59;6184342;23;20243;-68
2021/12/01 02:05:37;;;;;;;;;;;;;;;-2.36;78.62;96616.91;6182173;23;19963;-69
2021/12/01 02:08:03;;;;;;;;;;;;;;;-2.42;78.32;96622.53;6184669;23;20002;-69
2021/12/01 02:10:28;;;;;;;;;;;;;;;-2.53;78.01;96621.56;6185159;23;19948;-68
2021/12/01 02:12:54;;;;;;;;;;;;;;;-2.58;78.17;96628.00;6208181;23;20006;-68
2021/12/01 02:15:20;;;;;;;;;;;;;;;-2.42;78.56;96638.06;6183358;23;19952;-67
2021/12/01 02:17:45;;;;;;;;;;;;;;;-2.50;78.24;96636.03;6184638;23;20344;-69
2021/12/01 02:20:20;;;;;;;;;;;;;;;-2.52;77.96;96638.72;6183460;23;20396;-66
2021/12/01 02:22:46;;;;;;;;;;;;;;;-2.41;78.20;96634.53;6184711;23;19964;-68
2021/12/01 02:25:12;;;;;;;;;;;;;;;-2.39;77.91;96638.66;6185036;23;19920;-67
2021/12/01 02:27:37;;;;;;;;;;;;;;;-2.35;77.73;96639.25;6184740;23;19921;-66
2021/12/01 02:30:03;;;;;;;;;;;;;;;-2.38;77.49;96640.31;6184862;23;19924;-68
2021/12/01 02:32:29;;;;;;;;;;;;;;;-2.42;77.43;96651.00;6184824;23;19920;-67
2021/12/01 02:34:54;;;;;;;;;;;;;;;-2.46;77.51;96642.63;6184333;23;19931;-67
2021/12/01 02:37:21;;;;;;;;;;;;;;;-2.52;77.44;96641.31;6184830;23;19924;-68
2021/12/01 02:39:51;;;;;;;;;;;;;;;-2.48;77.53;96657.44;6184576;23;19990;-68
2021/12/01 02:42:18;;;;;;;;;;;;;;;-2.64;77.47;96644.81;6184549;23;19931;-68
2021/12/01 02:44:43;;;;;;;;;;;;;;;-2.65;77.31;96641.38;6184041;23;20300;-67
2021/12/01 02:47:09;;;;;;;;;;;;;;;-2.48;77.42;96635.00;6184414;23;19920;-69
2021/12/01 02:49:35;;;;;;;;;;;;;;;-2.50;76.96;96636.84;6182567;23;19927;-67
2021/12/01 02:52:01;;;;;;;;;;;;;;;-2.48;76.45;96640.16;6182196;23;19924;-68
2021/12/01 02:54:29;;;;;;;;;;;;;;;-2.56;76.15;96639.88;6184499;23;19927;-67
2021/12/01 02:56:55;;;;;;;;;;;;;;;-2.54;76.21;96643.19;6184390;23;19920;-68
2021/12/01 02:59:21;;;;;;;;;;;;;;;-2.50;76.06;96648.97;6184151;23;19931;-69
2021/12/01 03:01:46;;;;;;;;;;;;;;;-2.55;75.87;96646.72;6182247;23;20314;-69
2021/12/01 03:04:13;;;;;;;;;;;;;;;-2.58;75.77;96657.28;6182766;23;19920;-70
2021/12/01 03:06:38;;;;;;;;;;;;;;;-2.52;75.67;96659.41;6181783;23;20343;-68
2021/12/01 03:09:05;;;;;;;;;;;;;;;-2.53;75.47;96651.78;6181501;23;19944;-68
2021/12/01 03:11:30;;;;;;;;;;;;;;;-2.40;75.55;96649.13;6179068;23;19924;-69
2021/12/01 03:13:56;;;;;;;;;;;;;;;-2.45;74.99;96654.63;6182851;23;19968;-67
2021/12/01 03:16:22;;;;;;;;;;;;;;;-2.39;75.15;96658.53;6183825;23;19920;-68
2021/12/01 03:18:48;;;;;;;;;;;;;;;-2.45;74.89;96655.44;6182900;23;19920;-68
2021/12/01 03:21:14;;;;;;;;;;;;;;;-2.55;74.64;96654.47;6184181;23;19923;-69
2021/12/01 03:23:40;;;;;;;;;;;;;;;-2.56;75.05;96655.41;6184715;23;19979;-69
2021/12/01 03:26:06;;;;;;;;;;;;;;;-2.55;75.04;96659.66;6183811;23;20325;-69
2021/12/01 03:28:32;;;;;;;;;;;;;;;-2.52;74.68;96659.41;6184060;23;20003;-68
2021/12/01 03:30:58;;;;;;;;;;;;;;;-2.45;74.82;96660.63;6182345;23;20003;-68
2021/12/01 03:33:23;;;;;;;;;;;;;;;-2.44;74.83;96651.13;6184341;23;19927;-70
2021/12/01 03:35:51;;;;;;;;;;;;;;;-2.31;74.57;96653.63;6184088;23;19924;-71
2021/12/01 03:38:18;;;;;;;;;;;;;;;-2.33;74.30;96658.91;6184251;23;20340;-68
2021/12/01 03:40:43;;;;;;;;;;;;;;;-2.48;74.10;96660.88;6183833;23;19974;-69
2021/12/01 03:43:09;;;;;;;;;;;;;;;-2.54;74.56;96666.47;6184422;23;20332;-69
2021/12/01 03:45:35;;;;;;;;;;;;;;;-2.53;74.61;96659.53;6184131;23;19920;-69
2021/12/01 03:48:00;;;;;;;;;;;;;;;-2.63;74.66;96656.78;6183735;23;19931;-70
2021/12/01 03:50:26;;;;;;;;;;;;;;;-2.57;74.73;96666.69;6183974;23;19920;-68
2021/12/01 03:52:52;;;;;;;;;;;;;;;-2.45;75.01;96665.78;6183548;23;19920;-69
2021/12/01 03:55:18;;;;;;;;;;;;;;;-2.47;74.68;96662.50;6183960;23;19926;-69
2021/12/01 03:57:44;;;;;;;;;;;;;;;-2.46;75.18;96664.13;6182183;23;19927;-70
2021/12/01 04:00:11;;;;;;;;;;;;;;;-2.52;75.31;96667.19;6184302;23;19921;-69
2021/12/01 04:02:40;;;;;;;;;;;;;;;-2.66;75.43;96668.19;6184179;23;19920;-69
2021/12/01 04:05:06;;;;;;;;;;;;;;;-2.64;75.21;96675.84;6182313;23;20010;-70
2021/12/01 04:07:34;;;;;;;;;;;;;;;-2.65;75.56;96679.38;6158187;23;19927;-70
2021/12/01 04:09:59;;;;;;;;;;;;;;;-2.77;75.87;96676.72;6182018;23;20228;-70
2021/12/01 04:12:25;;;;;;;;;;;;;;;-2.77;76.39;96687.06;6184133;23;20598;-69
2021/12/01 04:14:51;;;;;;;;;;;;;;;-2.77;76.23;96678.47;6183716;23;19920;-71
2021/12/01 04:17:17;;;;;;;;;;;;;;;-2.81;75.83;96685.63;6181241;23;19920;-69
2021/12/01 04:19:43;;;;;;;;;;;;;;;-2.64;76.19;96683.63;6183935;23;19955;-70
2021/12/01 04:22:08;;;;;;;;;;;;;;;-2.70;76.11;96697.00;6181662;23;19920;-70
2021/12/01 04:24:34;;;;;;;;;;;;;;;-2.80;76.16;96692.44;6183542;23;19920;-71
2021/12/01 04:27:00;;;;;;;;;;;;;;;-2.78;76.11;96698.34;6181683;23;19920;-71
2021/12/01 04:29:26;;;;;;;;;;;;;;;-2.72;76.11;96696.25;6182647;23;20025;-70
2021/12/01 04:31:53;;;;;;;;;;;;;;;-2.78;75.90;96687.16;6180989;23;20008;-70
2021/12/01 04:34:20;;;;;;;;;;;;;;;-2.72;75.97;96698.84;6183004;23;19920;-70
2021/12/01 04:36:48;;;;;;;;;;;;;;;-2.73;76.19;96692.03;6183833;23;19951;-71
2021/12/01 04:39:14;;;;;;;;;;;;;;;-2.72;75.53;96696.25;6182896;23;19952;-71
2021/12/01 04:41:51;;;;;;;;;;;;;;;-2.77;75.80;96702.59;6182095;23;20303;-71
2021/12/01 04:44:19;;;;;;;;;;;;;;;-2.81;75.89;96695.97;6183465;23;19920;-71
2021/12/01 04:46:46;;;;;;;;;;;;;;;-2.73;75.88;96698.00;6206903;23;19920;-71
2021/12/01 04:49:13;;;;;;;;;;;;;;;-2.76;75.52;96699.06;6183384;23;19920;-71
2021/12/01 04:51:43;;;;;;;;;;;;;;;-2.77;75.40;96701.75;6182668;23;20328;-70
2021/12/01 04:54:09;;;;;;;;;;;;;;;-2.84;75.06;96696.19;6182178;23;19920;-71
2021/12/01 04:56:35;;;;;;;;;;;;;;;-2.85;75.12;96701.50;6183771;23;19943;-72
2021/12/01 04:59:01;;;;;;;;;;;;;;;-2.79;75.20;96699.28;6183152;23;20318;-71
2021/12/01 05:01:26;;;;;;;;;;;;;;;-2.78;75.22;96713.03;6183628;23;19920;-72
2021/12/01 05:03:52;;;;;;;;;;;;;;;-2.83;75.07;96708.22;6183454;23;20006;-69
2021/12/01 05:06:18;;;;;;;;;;;;;;;-2.79;75.12;96717.38;6183847;23;20010;-74
2021/12/01 05:08:44;;;;;;;;;;;;;;;-2.72;74.92;96712.59;6183664;23;19920;-70
2021/12/01 05:11:10;;;;;;;;;;;;;;;-2.83;74.65;96717.69;6180880;23;19927;-70
2021/12/01 05:13:35;;;;;;;;;;;;;;;-2.83;74.92;96722.88;6182921;23;19924;-71
2021/12/01 05:16:01;;;;;;;;;;;;;;;-2.76;74.82;96724.91;6182459;23;19920;-71
2021/12/01 05:18:27;;;;;;;;;;;;;;;-2.94;74.46;96719.28;6181555;23;19924;-69
2021/12/01 05:20:53;;;;;;;;;;;;;;;-2.89;74.60;96724.16;6182591;23;19947;-71
2021/12/01 05:23:18;;;;;;;;;;;;;;;-2.98;74.41;96727.38;6182930;23;19920;-71
2021/12/01 05:25:44;;;;;;;;;;;;;;;-2.84;74.11;96726.38;6183584;23;19920;-70
2021/12/01 05:28:10;;;;;;;;;;;;;;;-2.82;74.13;96746.03;6184892;23;19924;-70
2021/12/01 05:30:36;;;;;;;;;;;;;;;-2.74;73.35;96736.91;6185490;23;20350;-70
2021/12/01 05:33:09;;;;;;;;;;;;;;;-2.72;73.35;96745.41;6184583;23;19920;-70
2021/12/01 05:35:36;;;;;;;;;;;;;;;-2.79;73.15;96732.91;6184955;23;19948;-71
2021/12/01 05:38:04;;;;;;;;;;;;;;;-2.76;73.68;96743.03;6183306;23;19927;-71
2021/12/01 05:40:30;;;;;;;;;;;;;;;-2.81;73.17;96746.88;6185186;23;20008;-71
2021/12/01 05:42:56;;;;;;;;;;;;;;;-2.76;73.31;96755.94;6185263;23;20324;-72
2021/12/01 05:45:22;;;;;;;;;;;;;;;-2.71;72.85;96754.81;6185161;23;19931;-70
2021/12/01 05:47:47;;;;;;;;;;;;;;;-2.65;73.15;96759.56;6185411;23;19925;-73
2021/12/01 05:50:13;;;;;;;;;;;;;;;-2.64;73.18;96766.41;6183425;23;19979;-70
2021/12/01 05:52:39;;;;;;;;;;;;;;;-2.74;72.58;96760.19;6185264;23;20350;-72
2021/12/01 05:55:05;;;;;;;;;;;;;;;-2.63;73.13;96760.25;6184851;23;19920;-73
2021/12/01 05:57:31;;;;;;;;;;;;;;;-2.55;73.23;96765.72;6185341;23;19924;-70
2021/12/01 05:59:57;;;;;;;;;;;;;;;-2.61;72.93;96764.38;6185003;23;19954;-71
2021/12/01 06:02:22;;;;;;;;;;;;;;;-2.49;72.96;96778.22;6185152;23;19966;-69
2021/12/01 06:04:48;;;;;;;;;;;;;;;-2.60;72.38;96778.16;6185107;23;20331;-71
2021/12/01 06:07:14;;;;;;;;;;;;;;;-2.54;72.63;96769.13;6184908;23;19983;-71
2021/12/01 06:09:40;;;;;;;;;;;;;;;-2.55;72.76;96776.06;6183936;23;19921;-70
2021/12/01 06:12:06;;;;;;;;;;;;;;;-2.45;72.78;96779.66;6182491;23;19995;-74
2021/12/01 06:14:33;;;;;;;;;;;;;;;-2.48;72.58;96785.06;6183934;23;19946;-71
2021/12/01 06:16:59;;;;;;;;;;;;;;;-2.45;72.38;96784.84;6182484;23;19927;-72
2021/12/01 06:19:25;;;;;;;;;;;;;;;-2.51;72.20;96803.38;6183562;23;19927;-72
2021/12/01 06:21:50;;;;;;;;;;;;;;;-2.51;72.25;96787.03;6183651;23;19924;-72
2021/12/01 06:24:16;;;;;;;;;;;;;;;-2.57;72.58;96787.47;6182545;23;20038;-72
2021/12/01 06:26:41;;;;;;;;;;;;;;;-2.47;72.48;96797.06;6184594;23;19920;-72
2021/12/01 06:29:07;;;;;;;;;;;;;;;-2.46;72.45;96792.72;6182915;23;20343;-70
2021/12/01 06:31:33;;;;;;;;;;;;;;;-2.46;72.51;96803.06;6182958;23;20366;-72
2021/12/01 06:33:59;;;;;;;;;;;;;;;-2.47;72.24;96801.41;6184644;23;19920;-71
2021/12/01 06:36:25;;;;;;;;;;;;;;;-2.47;72.30;96794.47;6185191;23;19920;-73
2021/12/01 06:38:51;;;;;;;;;;;;;;;-2.41;72.39;96800.16;6182511;23;19924;-71
2021/12/01 06:41:17;;;;;;;;;;;;;;;-2.40;71.68;96801.81;6158613;23;20042;-73
2021/12/01 06:43:42;;;;;;;;;;;;;;;-2.39;71.78;96798.25;6185301;23;19943;-71
2021/12/01 06:46:08;;;;;;;;;;;;;;;-2.46;71.38;96798.69;6184713;23;19920;-71
2021/12/01 06:48:34;;;;;;;;;;;;;;;-2.44;70.89;96804.59;6185123;23;20189;-71
2021/12/01 06:50:59;;;;;;;;;;;;;;;-2.34;70.60;96809.13;6185701;23;19920;-72
2021/12/01 06:53:26;;;;;;;;;;;;;;;-2.27;70.57;96807.75;6187645;23;19920;-72
2021/12/01 06:55:52;;;;;;;;;;;;;;;-2.33;69.97;96818.53;6159736;23;19920;-72
2021/12/01 06:58:18;;;;;;;;;;;;;;;-2.20;69.84;96824.50;6185341;23;20002;-72
2021/12/01 07:00:44;;;;;;;;;;;;;;;-2.12;69.94;96831.72;6183082;23;19919;-72
2021/12/01 07:03:09;;;;;;;;;;;;;;;-2.10;69.56;96835.03;6184186;23;19947;-68
2021/12/01 07:05:36;;;;;;;;;;;;;;;-2.23;69.68;96829.91;6184894;23;19975;-71
2021/12/01 07:08:02;;;;;;;;;;;;;;;-2.32;70.15;96846.06;6184534;23;19920;-74
2021/12/01 07:10:28;;;;;;;;;;;;;;;-2.18;70.40;96839.91;6184539;23;19996;-72
2021/12/01 07:12:56;;;;;;;;;;;;;;;-2.07;69.87;96842.56;6184088;23;20015;-72
2021/12/01 07:15:22;;;;;;;;;;;;;;;-2.07;69.86;96841.75;6182034;23;19948;-71
2021/12/01 07:17:51;;;;;;;;;;;;;;;-2.17;69.88;96837.25;6207691;23;19920;-71
2021/12/01 07:20:19;;;;;;;;;;;;;;;-2.22;69.21;96849.66;6182572;23;20259;-72
2021/12/01 07:22:45;;;;;;;;;;;;;;;-2.08;69.34;96843.53;6183422;23;19994;-72
2021/12/01 07:25:11;;;;;;;;;;;;;;;-2.16;68.69;96846.63;6158158;23;20267;-72
2021/12/01 07:27:39;;;;;;;;;;;;;;;-2.03;69.10;96858.72;6184495;23;19951;-71
2021/12/01 07:30:05;;;;;;;;;;;;;;;-2.00;68.56;96861.09;6184501;23;19927;-72
2021/12/01 07:32:34;;;;;;;;;;;;;;;-1.89;68.12;96868.09;6158400;23;19927;-68
2021/12/01 07:35:13;;;;;;;;;;;;;;;-1.93;67.59;96862.31;6182343;23;20003;-71
2021/12/01 07:38:02;;;;;;;;;;;;;;;-1.90;67.36;96864.66;6182150;23;19920;-69
2021/12/01 07:40:28;;;;;;;;;;;;;;;-1.66;66.94;96869.00;6181204;23;19951;-69
2021/12/01 07:42:54;;;;;;;;;;;;;;;-1.69;66.60;96869.25;6183836;23;20347;-71
2021/12/01 07:48:54;;;;;;;;;;;;;;;-1.83;66.80;96868.47;6182751;23;19974;-71
2021/12/01 07:51:49;;;;;;;;;;;;;;;-1.77;66.92;96876.72;6183203;23;20286;-73
2021/12/01 07:54:41;;;;;;;;;;;;;;;-1.80;67.21;96899.31;6182254;23;19916;-74
2021/12/01 07:57:07;;;;;;;;;;;;;;;-1.79;67.01;96892.41;6135904;23;20497;-71
2021/12/01 07:59:39;;;;;;;;;;;;;;;-1.77;67.01;96892.28;6184263;23;19916;-72
2021/12/01 08:02:08;;;;;;;;;;;;;;;-1.85;66.81;96885.88;6181696;23;19920;-72
2021/12/01 08:04:34;;;;;;;;;;;;;;;-1.79;67.61;96890.63;6180997;23;19966;-71
2021/12/01 08:07:00;;;;;;;;;;;;;;;-1.72;67.71;96896.22;6182063;23;19923;-73
2021/12/01 08:09:29;;;;;;;;;;;;;;;-1.73;67.88;96893.69;6183744;23;19920;-70
2021/12/01 08:11:55;;;;;;;;;;;;;;;-1.71;68.29;96907.38;6184136;23;20264;-72
2021/12/01 08:14:24;;;;;;;;;;;;;;;-1.68;68.41;96899.41;6182309;23;20008;-73
2021/12/01 08:16:55;;;;;;;;;;;;;;;-1.77;68.70;96905.22;6182315;23;19955;-71
2021/12/01 08:19:24;;;;;;;;;;;;;;;-2.08;69.38;96894.47;6181852;23;19924;-72
2021/12/01 08:21:52;;;;;;;;;;;;;;;-2.01;69.92;96906.03;6181821;23;19930;-71
2021/12/01 08:24:18;;;;;;;;;;;;;;;-1.98;70.28;96905.84;6182700;23;20372;-71
2021/12/01 08:26:44;;;;;;;;;;;;;;;-1.96;70.28;96909.13;6183631;23;19920;-71
2021/12/01 08:29:12;;;;;;;;;;;;;;;-2.14;70.45;96917.25;6183542;23;20328;-71
2021/12/01 08:31:38;;;;;;;;;;;;;;;-2.07;70.86;96907.28;6182856;23;19920;-74
2021/12/01 08:34:04;;;;;;;;;;;;;;;-1.92;70.76;96913.16;6182897;23;19920;-74
2021/12/01 08:36:29;;;;;;;;;;;;;;;-1.99;70.54;96919.72;6184059;23;19921;-70
2021/12/01 08:38:55;;;;;;;;;;;;;;;-1.98;70.45;96905.84;6184627;23;19920;-75
2021/12/01 08:41:30;;;;;;;;;;;;;;;-2.16;70.79;96918.31;6184671;23;19920;-72
2021/12/01 08:43:58;;;;;;;;;;;;;;;-2.09;71.48;96908.34;6158007;23;19926;-74
2021/12/01 08:46:26;;;;;;;;;;;;;;;-1.95;71.21;96921.97;6181153;23;20271;-69
2021/12/01 08:48:52;;;;;;;;;;;;;;;-1.92;71.62;96918.31;6184539;23;19927;-71
2021/12/01 08:51:17;;;;;;;;;;;;;;;-1.89;71.72;96918.13;6183850;23;19921;-70
2021/12/01 08:53:53;;;;;;;;;;;;;;;-1.97;71.46;96912.66;6183714;23;19920;-72
2021/12/01 08:56:29;;;;;;;;;;;;;;;-1.89;71.49;96920.72;6181867;23;20010;-74
2021/12/01 08:59:16;;;;;;;;;;;;;;;-2.02;72.13;96932.88;6203238;23;19924;-70
2021/12/01 09:01:46;;;;;;;;;;;;;;;-2.05;72.37;96928.75;6158004;23;20047;-77
2021/12/01 09:04:49;;;;;;;;;;;;;;;;;;;;;
2021/12/01 09:07:54;;;;;;;;;;;;;;;-1.90;73.03;96929.41;6161262;23;19958;-73
2021/12/01 09:10:52;;;;;;;;;;;;;;;-1.74;72.72;96930.94;6184111;23;19916;-76
2021/12/01 09:13:47;;;;;;;;;;;;;;;-1.92;73.08;96931.28;6184371;23;19921;-72
2021/12/01 09:16:17;;;;;;;;;;;;;;;-1.86;72.82;96925.66;6163230;23;19967;-71
2021/12/01 09:18:43;;;;;;;;;;;;;;;-1.83;72.64;96938.41;6209196;23;19916;-72
2021/12/01 09:21:09;;;;;;;;;;;;;;;-1.65;72.82;96932.84;6185744;23;19982;-73
2021/12/01 09:23:35;;;;;;;;;;;;;;;-1.68;71.85;96933.09;6185183;23;19966;-73
2021/12/01 09:26:04;;;;;;;;;;;;;;;-1.84;71.32;96936.75;6183646;23;19924;-72
2021/12/01 09:28:30;;;;;;;;;;;;;;;-1.89;70.74;96936.25;6183458;23;20348;-72
2021/12/01 09:30:56;;;;;;;;;;;;;;;-1.82;71.19;96932.31;6184303;23;19966;-71
2021/12/01 09:33:22;;;;;;;;;;;;;;;-1.65;70.33;96938.84;6183214;23;19924;-69
2021/12/01 09:35:47;;;;;;;;;;;;;;;-1.50;69.78;96939.50;6185668;23;19948;-72
2021/12/01 09:38:15;;;;;;;;;;;;;;;-1.55;69.26;96941.59;6185208;23;19920;-71
2021/12/01 09:40:44;;;;;;;;;;;;;;;-1.54;68.80;96945.84;6159188;23;20006;-71
2021/12/01 09:43:10;;;;;;;;;;;;;;;-1.54;68.31;96940.69;6185625;23;20291;-73
2021/12/01 09:45:37;;;;;;;;;;;;;;;-1.50;68.04;96944.69;6185384;23;19927;-72
2021/12/01 09:48:03;;;;;;;;;;;;;;;-1.47;67.58;96952.25;6155482;23;19920;-72
2021/12/01 09:50:29;;;;;;;;;;;;;;;-1.28;68.25;96956.13;6185737;23;19920;-71
2021/12/01 09:52:55;;;;;;;;;;;;;;;-1.10;68.35;96968.66;6208931;23;19920;-73
2021/12/01 09:55:21;;;;;;;;;;;;;;;-0.93;67.70;96970.03;6184598;23;19931;-70
2021/12/01 09:58:13;;;;;;;;;;;;;;;-1.20;67.45;96969.31;6185154;23;19920;-70
2021/12/01 10:00:41;;;;;;;;;;;;;;;-1.17;67.73;96979.50;6180092;23;19928;-73
2021/12/01 10:03:06;;;;;;;;;;;;;;;-1.30;68.29;96973.53;6183517;23;19920;-70
2021/12/01 10:05:51;;;;;;;;;;;;;;;-1.51;68.76;96975.91;6183037;23;19920;-71
2021/12/01 10:08:28;;;;;;;;;;;;;;;-1.57;69.81;96974.59;6206725;23;19920;-71
2021/12/01 10:10:54;;;;;;;;;;;;;;;-1.49;69.76;96974.03;6183684;23;19954;-69
2021/12/01 10:13:27;;;;;;;;;;;;;;;-1.34;70.67;96972.94;6183215;23;20309;-70
2021/12/01 10:15:54;;;;;;;;;;;;;;;-1.23;70.67;96979.13;6182345;23;20013;-69
2021/12/01 10:18:20;;;;;;;;;;;;;;;-1.32;70.73;96967.66;6181928;23;19921;-72
2021/12/01 10:21:06;;;;;;;;;;;;;;;-1.38;70.70;96975.88;6183262;23;19943;-72
2021/12/01 10:23:33;;;;;;;;;;;;;;;-1.41;70.55;96970.91;6182975;23;19962;-69
2021/12/01 10:26:22;;;;;;;;;;;;;;;-1.85;71.79;96975.72;6183762;23;19947;-69
2021/12/01 10:28:49;;;;;;;;;;;;;;;-1.79;72.56;96976.09;6171344;23;19975;-72
2021/12/01 10:31:15;;;;;;;;;;;;;;;-1.88;72.70;96981.09;6184028;23;19920;-71
2021/12/01 10:33:41;;;;;;;;;;;;;;;-1.92;72.84;96974.50;6184570;23;19924;-71
2021/12/01 10:36:07;;;;;;;;;;;;;;;-1.85;72.46;96973.94;6183225;23;20362;-71
2021/12/01 10:38:37;;;;;;;;;;;;;;;-1.80;72.83;96974.44;6184811;23;19974;-69
2021/12/01 10:41:04;;;;;;;;;;;;;;;-1.66;71.63;96975.25;6183514;23;19920;-72
2021/12/01 10:43:55;;;;;;;;;;;;;;;-1.51;70.57;96981.94;6184364;23;19944;-72
2021/12/01 10:46:21;;;;;;;;;;;;;;;-1.39;69.07;96982.00;6180307;23;20236;-70
2021/12/01 10:48:59;;;;;;;;;;;;;;;-1.52;68.51;96979.44;6182887;23;19960;-71
2021/12/01 10:51:35;;;;;;;;;;;;;;;-1.41;67.47;96978.66;6184703;23;20002;-74
2021/12/01 10:54:01;;;;;;;;;;;;;;;-1.32;66.66;96985.81;6183536;23;20377;-71
2021/12/01 10:56:27;;;;;;;;;;;;;;;-1.56;66.59;96990.97;6183993;23;19920;-72
2021/12/01 10:58:53;;;;;;;;;;;;;;;-1.68;66.51;96987.50;6184376;23;19998;-71
2021/12/01 11:01:24;;;;;;;;;;;;;;;-1.51;66.62;96996.66;6184747;23;19927;-70
2021/12/01 11:03:51;;;;;;;;;;;;;;;-1.55;65.94;96992.63;6184470;23;19920;-73
2021/12/01 11:06:20;;;;;;;;;;;;;;;-1.51;66.16;96986.28;6183011;23;19970;-71
2021/12/01 11:08:48;;;;;;;;;;;;;;;-1.30;66.27;96991.69;6184207;23;19928;-72
2021/12/01 11:11:15;;;;;;;;;;;;;;;-1.24;64.68;97000.81;6183736;23;20530;-75
2021/12/01 11:13:43;;;;;;;;;;;;;;;-1.38;64.83;96996.63;6184867;23;19943;-71
2021/12/01 11:16:10;;;;;;;;;;;;;;;-1.44;65.21;96986.69;6183146;23;19920;-68
2021/12/01 11:18:37;;;;;;;;;;;;;;;-1.50;65.17;96986.16;6184556;23;19920;-71
2021/12/01 11:21:08;;;;;;;;;;;;;;;-1.50;65.30;96980.97;6184780;23;19920;-72
2021/12/01 11:23:38;;;;;;;;;;;;;;;-1.68;65.54;96990.91;6158460;23;19920;-73
2021/12/01 11:26:07;;;;;;;;;;;;;;;-1.87;65.88;97006.94;6184054;23;19927;-70
2021/12/01 11:28:43;;;;;;;;;;;;;;;-1.80;65.58;97002.94;6184421;23;19920;-70
2021/12/01 11:31:13;;;;;;;;;;;;;;;-1.75;65.27;96994.03;6184339;23;19920;-70
2021/12/01 11:33:43;;;;;;;;;;;;;;;-1.76;65.14;97007.94;6182778;23;19927;-71
2021/12/01 11:36:11;;;;;;;;;;;;;;;-1.76;65.01;97008.75;6184248;23;19920;-73
2021/12/01 11:38:36;;;;;;;;;;;;;;;-1.67;64.96;97008.13;6184833;23;19921;-71
2021/12/01 11:41:03;;;;;;;;;;;;;;;-1.57;64.21;97000.53;6184376;23;19966;-71
2021/12/01 11:43:29;;;;;;;;;;;;;;;-1.57;63.91;97020.41;6185183;23;19924;-70
2021/12/01 11:45:55;;;;;;;;;;;;;;;-1.47;64.06;97019.66;6182649;23;19924;-70
2021/12/01 11:48:33;;;;;;;;;;;;;;;-1.61;63.18;97022.38;6181870;23;19970;-69
2021/12/01 11:51:05;;;;;;;;;;;;;;;-1.68;63.65;97031.53;6182701;23;20357;-70
2021/12/01 11:53:33;;;;;;;;;;;;;;;-1.76;63.48;97029.47;6183492;23;19985;-70
2021/12/01 11:56:05;;;;;;;;;;;;;;;-1.75;63.33;97030.31;6183530;23;19920;-72
2021/12/01 11:58:40;;;;;;;;;;;;;;;-1.85;63.21;97030.94;6183832;23;19962;-70
2021/12/01 12:01:06;;;;;;;;;;;;;;;-1.76;62.83;97039.03;6183521;23;19924;-70
2021/12/01 12:03:32;;;;;;;;;;;;;;;-1.91;62.43;97041.72;6182248;23;19972;-71
2021/12/01 12:06:18;;;;;;;;;;;;;;;-1.75;62.98;97040.69;6183469;23;20244;-71
2021/12/01 12:09:06;;;;;;;;;;;;;;;-1.75;62.83;97044.09;6183988;23;19920;-71
2021/12/01 12:11:34;;;;;;;;;;;;;;;-1.77;63.25;97047.72;6183175;23;19920;-72
2021/12/01 12:14:00;;;;;;;;;;;;;;;-1.76;63.02;97042.41;6183904;23;19920;-70
2021/12/01 12:16:26;;;;;;;;;;;;;;;-1.76;63.08;97047.59;6183538;23;19920;-72
2021/12/01 12:18:53;;;;;;;;;;;;;;;-1.76;63.75;97063.16;6184071;23;20007;-70
2021/12/01 12:24:04;;;;;;;;;;;;;;;-1.80;62.89;97065.13;6183786;23;19971;-71
2021/12/01 12:26:34;;;;;;;;;;;;;;;-1.86;63.09;97062.94;6207208;23;19920;-70
2021/12/01 12:29:02;;;;;;;;;;;;;;;-1.82;63.04;97071.34;6157734;23;20259;-70
2021/12/01 12:31:29;;;;;;;;;;;;;;;-1.72;63.31;97072.38;6181199;23;19971;-74
2021/12/01 12:33:59;;;;;;;;;;;;;;;-1.72;63.38;97074.13;6182170;23;20008;-73
2021/12/01 12:36:39;;;;;;;;;;;;;;;-1.60;63.33;97088.00;6181573;23;20225;-70
2021/12/01 12:39:06;;;;;;;;;;;;;;;-1.94;63.95;97083.38;6185659;23;20351;-71
2021/12/01 12:41:32;;;;;;;;;;;;;;;-2.11;64.20;97087.13;6185536;23;19920;-71
2021/12/01 12:44:17;;;;;;;;;;;;;;;-2.23;64.91;97104.31;6183730;23;19920;-71
2021/12/01 12:46:59;;;;;;;;;;;;;;;-2.22;65.17;97100.78;6185089;23;19936;-71
2021/12/01 12:49:46;;;;;;;;;;;;;;;-2.07;65.15;97098.91;6185611;23;19920;-72
2021/12/01 12:52:24;;;;;;;;;;;;;;;-2.19;65.18;97110.94;6159387;23;19924;-72
2021/12/01 12:55:10;;;;;;;;;;;;;;;-2.19;65.05;97105.75;6184051;23;19920;-71
2021/12/01 12:57:53;;;;;;;;;;;;;;;-2.34;65.34;97127.50;6150542;23;19991;-69
2021/12/01 13:00:22;;;;;;;;;;;;;;;-2.28;65.36;97124.47;6183911;23;19920;-69
2021/12/01 13:02:49;;;;;;;;;;;;;;;-2.18;64.85;97127.28;6208554;23;19943;-70
2021/12/01 13:05:17;;;;;;;;;;;;;;;-2.33;64.51;97117.03;6184336;23;19946;-71
2021/12/01 13:07:51;;;;;;;;;;;;;;;-2.54;64.40;97131.38;6182946;23;19920;-71
2021/12/01 13:10:21;;;;;;;;;;;;;;;-2.39;64.95;97122.63;6183091;23;19920;-71